Terminal Aerodrome Forecast
Issued by NWS Omaha/Valley, NE

Home | Current Version | Previous Version | Graphics & Text | Print | Product List | Glossary On
Versions: 1 2 3 4 5 6 7 8 9 10 11 12 13 14 15 16 17 18 19 20 21 22 23 24 25 26 27 28 29 30
000
FTUS43 KOAX 031720
TAFOFK
TAF
KOFK 031720Z 0318/0418 32026G38KT P6SM OVC025
      TEMPO 0318/0320 BKN015
     FM032100 34022G32KT P6SM BKN035
     FM040000 34015G24KT P6SM BKN035
     FM040300 34011KT P6SM BKN050
     FM040900 32006KT P6SM SCT250
     FM041600 32014G20KT P6SM SCT250=

USA.gov is the U.S. government's official web portal to all federal, state and local government web resources and services.